createdAt,value
2023-10-25T00:00:14.175Z,53.22
2023-10-25T00:02:41.374Z,53.01
2023-10-25T00:05:10.473Z,53.01
2023-10-25T00:07:37.612Z,53.14
2023-10-25T00:10:05.525Z,53.32
2023-10-25T00:12:32.762Z,53.20
2023-10-25T00:14:59.973Z,53.06
2023-10-25T00:17:27.200Z,53.00
2023-10-25T00:19:54.382Z,53.26
2023-10-25T00:22:22.892Z,53.27
2023-10-25T00:24:50.086Z,53.42
2023-10-25T00:27:17.314Z,53.54
2023-10-25T00:29:44.854Z,53.32
2023-10-25T00:32:12.047Z,53.43
2023-10-25T00:34:39.232Z,53.55
2023-10-25T00:37:06.434Z,53.40
2023-10-25T00:39:35.008Z,53.16
2023-10-25T00:42:02.217Z,53.08
2023-10-25T00:44:29.371Z,53.19
2023-10-25T00:46:56.787Z,53.11
2023-10-25T00:49:24.732Z,53.29
2023-10-25T00:51:51.951Z,53.16
2023-10-25T00:54:19.604Z,53.13
2023-10-25T00:56:49.977Z,53.13
2023-10-25T00:59:18.980Z,53.07
2023-10-25T01:01:47.418Z,53.47
2023-10-25T01:04:14.987Z,53.06
2023-10-25T01:06:42.381Z,53.15
2023-10-25T01:09:10.049Z,53.20
2023-10-25T01:11:38.230Z,53.07
2023-10-25T01:14:07.041Z,53.34
2023-10-25T01:16:34.224Z,53.29
2023-10-25T01:19:01.881Z,53.34
2023-10-25T01:21:29.553Z,53.65
2023-10-25T01:23:58.063Z,53.47
2023-10-25T01:26:25.198Z,53.16
2023-10-25T01:28:52.368Z,52.97
2023-10-25T01:31:19.603Z,52.99
2023-10-25T01:33:46.866Z,52.95
2023-10-25T01:36:14.069Z,53.05
2023-10-25T01:38:41.208Z,53.28
2023-10-25T01:41:10.425Z,53.18
2023-10-25T01:43:37.581Z,52.94
2023-10-25T01:46:04.759Z,53.13
2023-10-25T01:48:32.078Z,53.25
2023-10-25T01:50:59.273Z,53.19
2023-10-25T01:53:26.392Z,53.10
2023-10-25T01:55:53.539Z,52.90
2023-10-25T01:58:22.054Z,53.02
2023-10-25T02:00:49.257Z,53.10
2023-10-25T02:03:16.504Z,53.41
2023-10-25T02:05:43.890Z,53.31
2023-10-25T02:08:11.042Z,53.23
2023-10-25T02:10:38.226Z,53.37
2023-10-25T02:13:05.551Z,53.29
2023-10-25T02:15:34.023Z,53.33
2023-10-25T02:18:01.231Z,53.26
2023-10-25T02:20:28.441Z,53.16
2023-10-25T02:22:55.576Z,52.89
2023-10-25T02:25:22.760Z,52.90
2023-10-25T02:27:50.155Z,52.86
2023-10-25T02:30:17.382Z,52.95
2023-10-25T02:32:45.905Z,52.85
2023-10-25T02:35:13.103Z,53.24
2023-10-25T02:37:40.236Z,53.08
2023-10-25T02:40:08.418Z,52.91
2023-10-25T02:42:35.605Z,53.03
2023-10-25T02:45:02.824Z,52.95
2023-10-25T02:47:30.067Z,52.82
2023-10-25T02:49:58.570Z,52.89
2023-10-25T02:52:25.698Z,52.89
2023-10-25T02:54:54.668Z,53.10
2023-10-25T02:57:21.934Z,53.04
2023-10-25T02:59:49.077Z,53.33
2023-10-25T03:02:16.224Z,53.53
2023-10-25T03:04:43.511Z,53.14
2023-10-25T03:07:12.109Z,53.30
2023-10-25T03:09:39.342Z,53.09
2023-10-25T03:12:06.803Z,52.94
2023-10-25T03:14:33.950Z,52.64
2023-10-25T03:17:01.133Z,52.86
2023-10-25T03:19:28.406Z,52.79
2023-10-25T03:21:55.642Z,52.69
2023-10-25T03:24:24.203Z,52.84
2023-10-25T03:26:51.371Z,53.13
2023-10-25T03:29:18.517Z,53.21
2023-10-25T03:31:45.688Z,52.84
2023-10-25T03:34:13.083Z,53.03
2023-10-25T03:36:40.345Z,53.13
2023-10-25T03:39:07.566Z,52.93
2023-10-25T03:41:36.067Z,52.82
2023-10-25T03:44:03.240Z,52.84
2023-10-25T03:46:30.480Z,52.94
2023-10-25T03:48:57.763Z,53.20
2023-10-25T03:51:24.922Z,53.47
2023-10-25T03:53:52.244Z,53.33
2023-10-25T03:56:19.416Z,53.05
2023-10-25T03:58:47.923Z,53.05
2023-10-25T04:01:15.203Z,52.95
2023-10-25T04:03:42.562Z,53.01
2023-10-25T04:06:10.069Z,52.83
2023-10-25T04:08:37.587Z,52.96
2023-10-25T04:11:04.990Z,53.37
2023-10-25T04:13:32.230Z,53.35
2023-10-25T04:16:02.428Z,53.66
2023-10-25T04:18:30.962Z,55.71
2023-10-25T04:21:00.074Z,59.37
2023-10-25T04:23:28.765Z,53.98
2023-10-25T04:26:04.089Z,52.35
2023-10-25T04:28:31.723Z,47.44
2023-10-25T04:31:00.569Z,47.31
2023-10-25T04:33:28.180Z,48.15
2023-10-25T04:35:55.312Z,47.10
2023-10-25T04:38:22.570Z,47.02
2023-10-25T04:40:49.716Z,46.54
2023-10-25T04:43:17.063Z,47.15
2023-10-25T04:45:44.298Z,47.49
2023-10-25T04:48:12.857Z,47.46
2023-10-25T04:50:40.059Z,47.98
2023-10-25T04:53:07.534Z,47.67
2023-10-25T04:55:35.787Z,47.59
2023-10-25T04:58:04.041Z,48.09
2023-10-25T05:00:31.760Z,49.28
2023-10-25T05:02:59.248Z,49.31
2023-10-25T05:05:27.825Z,49.32
2023-10-25T05:07:55.642Z,60.69
2023-10-25T05:10:23.390Z,49.97
2023-10-25T05:12:51.126Z,51.11
2023-10-25T05:15:19.370Z,50.57
2023-10-25T05:17:48.147Z,50.78
2023-10-25T05:20:16.163Z,50.31
2023-10-25T05:22:50.506Z,50.12
2023-10-25T05:25:18.757Z,50.14
2023-10-25T05:27:46.674Z,50.02
2023-10-25T05:30:15.584Z,49.75
2023-10-25T05:32:45.464Z,49.38
2023-10-25T05:35:13.570Z,48.94
2023-10-25T05:37:41.246Z,49.04
2023-10-25T05:40:11.028Z,48.66
2023-10-25T05:42:46.892Z,48.48
2023-10-25T05:45:14.430Z,48.69
2023-10-25T05:47:42.509Z,48.99
2023-10-25T05:50:10.948Z,48.95
2023-10-25T05:52:38.732Z,48.94
2023-10-25T05:55:07.133Z,49.25
2023-10-25T05:57:36.391Z,49.05
2023-10-25T06:00:04.613Z,49.32
2023-10-25T06:02:34.571Z,49.57
2023-10-25T06:05:06.850Z,49.55
2023-10-25T06:07:35.166Z,49.30
2023-10-25T06:10:02.965Z,49.42
2023-10-25T06:12:30.770Z,49.43
2023-10-25T06:14:59.280Z,49.70
2023-10-25T06:17:26.773Z,49.60
2023-10-25T06:19:54.010Z,49.70
2023-10-25T06:22:21.264Z,49.66
2023-10-25T06:24:48.509Z,49.88
2023-10-25T06:27:15.698Z,49.92
2023-10-25T06:29:42.854Z,50.00
2023-10-25T06:32:11.514Z,50.15
2023-10-25T06:34:38.650Z,50.14
2023-10-25T06:37:07.469Z,50.15
2023-10-25T06:39:35.142Z,49.99
2023-10-25T06:42:02.788Z,50.20
2023-10-25T06:44:30.436Z,50.32
2023-10-25T06:46:58.355Z,50.47
2023-10-25T06:49:27.700Z,50.43
2023-10-25T06:51:55.437Z,50.23
2023-10-25T06:54:23.168Z,50.41
2023-10-25T06:56:50.904Z,50.32
2023-10-25T06:59:18.663Z,50.38
2023-10-25T07:01:47.194Z,50.58
2023-10-25T07:04:15.692Z,50.76
2023-10-25T07:06:46.702Z,50.55
2023-10-25T07:09:14.612Z,50.82
2023-10-25T07:11:41.744Z,50.65
2023-10-25T07:14:08.912Z,50.59
2023-10-25T07:16:37.085Z,50.78
2023-10-25T07:19:04.412Z,50.56
2023-10-25T07:21:31.694Z,50.59
2023-10-25T07:24:00.631Z,50.40
2023-10-25T07:26:27.777Z,50.39
2023-10-25T07:28:54.973Z,50.45
2023-10-25T07:31:22.255Z,50.36
2023-10-25T07:33:49.732Z,50.61
2023-10-25T07:36:16.873Z,50.65
2023-10-25T07:38:44.144Z,50.47
2023-10-25T07:41:12.622Z,50.58
2023-10-25T07:43:39.785Z,50.44
2023-10-25T07:46:07.000Z,50.72
2023-10-25T07:48:34.191Z,50.57
2023-10-25T07:51:04.395Z,50.49
2023-10-25T07:53:31.627Z,50.66
2023-10-25T07:58:34.095Z,50.90
2023-10-25T08:01:01.659Z,50.94
2023-10-25T08:03:28.933Z,51.02
2023-10-25T08:05:56.524Z,50.88
2023-10-25T08:08:23.724Z,50.99
2023-10-25T08:11:00.058Z,50.91
2023-10-25T08:13:27.213Z,50.63
2023-10-25T08:15:58.822Z,50.66
2023-10-25T08:18:27.592Z,50.70
2023-10-25T08:20:57.246Z,50.87
2023-10-25T08:23:26.009Z,50.51
2023-10-25T08:25:53.293Z,50.76
2023-10-25T08:28:20.874Z,50.80
2023-10-25T08:30:48.245Z,50.47
2023-10-25T08:33:16.929Z,50.66
2023-10-25T08:35:44.152Z,50.76
2023-10-25T08:38:11.299Z,50.79
2023-10-25T08:40:38.661Z,50.51
2023-10-25T08:43:05.811Z,50.68
2023-10-25T08:45:33.036Z,50.72
2023-10-25T08:48:00.348Z,51.00
2023-10-25T08:50:31.212Z,50.75
2023-10-25T08:52:59.012Z,50.76
2023-10-25T08:55:26.352Z,50.69
2023-10-25T08:57:53.515Z,50.95
2023-10-25T09:00:23.630Z,51.07
2023-10-25T09:03:02.759Z,50.98
2023-10-25T09:05:41.744Z,50.66
2023-10-25T09:08:15.459Z,50.76
2023-10-25T09:10:42.597Z,50.58
2023-10-25T09:13:13.236Z,50.45
2023-10-25T09:15:40.435Z,50.69
2023-10-25T09:18:07.689Z,50.65
2023-10-25T09:20:34.967Z,50.52
2023-10-25T09:23:13.111Z,50.75
2023-10-25T09:25:40.284Z,50.61
2023-10-25T09:28:15.482Z,50.89
2023-10-25T09:30:43.703Z,50.91
2023-10-25T09:33:11.238Z,50.69
2023-10-25T09:35:38.563Z,50.91
2023-10-25T09:38:05.728Z,51.00
2023-10-25T09:40:34.208Z,50.73
2023-10-25T09:43:06.934Z,50.93
2023-10-25T09:45:35.487Z,50.88
2023-10-25T09:48:08.305Z,50.80
2023-10-25T09:50:42.696Z,50.74
2023-10-25T09:53:15.099Z,50.72
2023-10-25T09:55:46.924Z,50.42
2023-10-25T09:58:16.365Z,50.48
2023-10-25T10:00:43.750Z,50.58
2023-10-25T10:03:23.244Z,50.50
2023-10-25T10:05:56.744Z,50.51
2023-10-25T10:08:31.300Z,50.68
2023-10-25T10:11:06.105Z,50.75
2023-10-25T10:13:33.269Z,50.50
2023-10-25T10:16:02.044Z,50.44
2023-10-25T10:18:30.039Z,50.38
2023-10-25T10:21:01.319Z,50.62
2023-10-25T10:23:36.552Z,50.67
2023-10-25T10:26:05.758Z,51.08
2023-10-25T10:28:43.193Z,50.96
2023-10-25T10:31:12.425Z,50.97
2023-10-25T10:33:44.855Z,50.69
2023-10-25T10:36:12.428Z,50.80
2023-10-25T10:39:13.247Z,50.67
2023-10-25T10:41:43.171Z,50.70
2023-10-25T10:44:10.938Z,50.63
2023-10-25T10:46:44.297Z,50.32
2023-10-25T10:49:11.839Z,50.38
2023-10-25T10:51:39.015Z,50.49
2023-10-25T10:54:06.585Z,50.37
2023-10-25T10:56:34.678Z,50.52
2023-10-25T10:59:03.303Z,50.64
2023-10-25T11:01:31.074Z,50.54
2023-10-25T11:03:58.664Z,50.63
2023-10-25T11:06:25.983Z,50.57
2023-10-25T11:08:53.738Z,50.54
2023-10-25T11:11:21.632Z,50.83
2023-10-25T11:13:50.092Z,50.97
2023-10-25T11:16:18.963Z,50.94
2023-10-25T11:18:46.123Z,50.70
2023-10-25T11:21:13.330Z,50.90
2023-10-25T11:23:40.615Z,50.89
2023-10-25T11:26:07.789Z,50.90
2023-10-25T11:28:35.018Z,50.96
2023-10-25T11:31:03.244Z,50.70
2023-10-25T11:33:43.032Z,50.57
2023-10-25T11:36:11.389Z,50.53
2023-10-25T11:38:42.426Z,50.42
2023-10-25T11:41:10.253Z,50.58
2023-10-25T11:43:37.496Z,50.76
2023-10-25T11:46:04.792Z,50.73
2023-10-25T11:48:34.750Z,50.57
2023-10-25T11:51:02.677Z,50.45
2023-10-25T11:53:29.883Z,50.53
2023-10-25T11:55:57.078Z,50.54
2023-10-25T11:58:24.246Z,50.26
2023-10-25T12:00:51.734Z,50.14
2023-10-25T12:03:18.965Z,50.08
2023-10-25T12:05:47.704Z,50.36
2023-10-25T12:08:14.876Z,50.42
2023-10-25T12:10:42.016Z,50.36
2023-10-25T12:13:09.166Z,50.35
2023-10-25T12:15:36.395Z,50.95
2023-10-25T12:18:03.812Z,50.44
2023-10-25T12:20:31.049Z,50.40
2023-10-25T12:22:59.677Z,50.47
2023-10-25T12:25:28.043Z,50.59
2023-10-25T12:27:55.267Z,50.57
2023-10-25T12:30:22.412Z,50.42
2023-10-25T12:32:50.251Z,50.18
2023-10-25T12:35:17.692Z,50.43
2023-10-25T12:37:44.840Z,50.31
2023-10-25T12:40:13.572Z,50.20
2023-10-25T12:42:40.786Z,50.13
2023-10-25T12:45:08.611Z,50.49
2023-10-25T12:47:35.896Z,50.39
2023-10-25T12:50:03.322Z,50.26
2023-10-25T12:52:30.452Z,50.21
2023-10-25T12:54:57.592Z,50.16
2023-10-25T12:57:26.112Z,50.17
2023-10-25T12:59:53.334Z,50.09
2023-10-25T13:02:20.635Z,50.28
2023-10-25T13:04:47.939Z,50.74
2023-10-25T13:07:15.554Z,50.25
2023-10-25T13:09:42.692Z,50.42
2023-10-25T13:12:10.506Z,50.35
2023-10-25T13:14:39.153Z,50.44
2023-10-25T13:17:19.070Z,50.32
2023-10-25T13:19:47.212Z,50.07
2023-10-25T13:22:14.334Z,50.10
2023-10-25T13:24:41.645Z,50.33
2023-10-25T13:27:09.039Z,50.16
2023-10-25T13:29:36.419Z,50.27
2023-10-25T13:32:05.505Z,50.00
2023-10-25T13:34:32.676Z,50.13
2023-10-25T13:36:59.809Z,49.97
2023-10-25T13:39:26.993Z,50.08
2023-10-25T13:41:54.412Z,50.39
2023-10-25T13:44:21.535Z,50.29
2023-10-25T13:46:48.664Z,50.06
2023-10-25T13:49:17.405Z,50.27
2023-10-25T13:51:45.822Z,50.05
2023-10-25T13:54:12.990Z,50.37
2023-10-25T13:56:40.140Z,50.32
2023-10-25T13:59:07.308Z,50.48
2023-10-25T14:01:34.493Z,50.33
2023-10-25T14:04:01.891Z,50.28
2023-10-25T14:06:30.443Z,50.27
2023-10-25T14:08:57.600Z,50.26
2023-10-25T14:11:24.855Z,50.37
2023-10-25T14:13:51.999Z,50.11
2023-10-25T14:16:19.156Z,50.06
2023-10-25T14:18:46.624Z,50.02
2023-10-25T14:21:17.391Z,50.18
2023-10-25T14:23:47.247Z,50.14
2023-10-25T14:26:14.536Z,50.19
2023-10-25T14:28:41.684Z,49.83
2023-10-25T14:31:14.052Z,50.13
2023-10-25T14:33:41.282Z,49.82
2023-10-25T14:36:12.329Z,50.01
2023-10-25T14:38:39.470Z,50.15
2023-10-25T14:41:09.072Z,50.16
2023-10-25T14:43:36.820Z,50.17
2023-10-25T14:46:04.665Z,50.30
2023-10-25T14:48:31.918Z,50.24
2023-10-25T14:50:59.119Z,50.37
2023-10-25T14:53:26.285Z,50.43
2023-10-25T14:55:53.534Z,50.52
2023-10-25T14:58:22.019Z,50.47
2023-10-25T15:00:49.217Z,50.34
2023-10-25T15:03:16.533Z,50.35
2023-10-25T15:05:43.952Z,50.28
2023-10-25T15:08:11.281Z,50.52
2023-10-25T15:10:38.396Z,50.30
2023-10-25T15:13:05.512Z,50.39
2023-10-25T15:15:34.089Z,50.28
2023-10-25T15:18:01.466Z,50.29
2023-10-25T15:20:28.664Z,50.07
2023-10-25T15:22:55.802Z,50.20
2023-10-25T15:25:22.897Z,50.06
2023-10-25T15:27:50.337Z,50.04
2023-10-25T15:30:17.577Z,50.11
2023-10-25T15:32:46.145Z,50.21
2023-10-25T15:35:13.416Z,50.24
2023-10-25T15:37:40.861Z,50.14
2023-10-25T15:40:15.954Z,50.45
2023-10-25T15:42:45.542Z,50.45
2023-10-25T15:45:13.074Z,50.23
2023-10-25T15:47:40.389Z,50.25
2023-10-25T15:50:10.194Z,50.49
2023-10-25T15:52:37.723Z,50.35
2023-10-25T15:55:06.096Z,50.26
2023-10-25T15:57:33.355Z,50.25
2023-10-25T16:00:00.598Z,50.37
2023-10-25T16:02:27.910Z,50.42
2023-10-25T16:04:55.106Z,50.07
2023-10-25T16:07:23.702Z,50.29
2023-10-25T16:09:50.856Z,50.21
2023-10-25T16:12:18.098Z,50.33
2023-10-25T16:14:45.454Z,50.18
2023-10-25T16:17:12.776Z,50.42
2023-10-25T16:19:39.996Z,50.44
2023-10-25T16:22:07.166Z,50.08
2023-10-25T16:24:35.665Z,49.95
2023-10-25T16:27:03.116Z,50.35
2023-10-25T16:29:30.333Z,50.39
2023-10-25T16:31:57.505Z,50.17
2023-10-25T16:34:24.680Z,50.52
2023-10-25T16:37:03.941Z,50.83
2023-10-25T16:39:31.666Z,51.83
2023-10-25T16:42:00.818Z,52.76
2023-10-25T16:44:28.234Z,53.44
2023-10-25T16:46:55.507Z,52.07
2023-10-25T16:49:22.679Z,50.83
2023-10-25T16:51:49.878Z,50.71
2023-10-25T16:54:17.204Z,50.49
2023-10-25T16:56:44.364Z,49.79
2023-10-25T16:59:12.863Z,49.75
2023-10-25T17:01:40.322Z,49.80
2023-10-25T17:04:07.885Z,49.79
2023-10-25T17:06:35.444Z,56.22
2023-10-25T17:09:02.667Z,49.73
2023-10-25T17:11:29.798Z,49.57
2023-10-25T17:13:58.083Z,50.41
2023-10-25T17:16:27.992Z,50.70
2023-10-25T17:18:55.127Z,50.02
2023-10-25T17:21:24.046Z,49.19
2023-10-25T17:23:51.324Z,48.55
2023-10-25T17:26:18.456Z,49.96
2023-10-25T17:28:45.615Z,51.05
2023-10-25T17:31:12.790Z,51.21
2023-10-25T17:33:41.327Z,51.75
2023-10-25T17:36:09.610Z,52.05
2023-10-25T17:38:37.449Z,52.56
2023-10-25T17:41:05.389Z,53.24
2023-10-25T17:43:32.593Z,53.42
2023-10-25T17:46:11.135Z,53.04
2023-10-25T17:48:38.983Z,52.15
2023-10-25T17:51:09.279Z,51.24
2023-10-25T17:53:36.924Z,50.97
2023-10-25T17:56:04.957Z,50.74
2023-10-25T17:58:32.218Z,50.40
2023-10-25T18:00:59.563Z,50.13
2023-10-25T18:03:26.811Z,49.72
2023-10-25T18:05:54.153Z,49.39
2023-10-25T18:08:22.928Z,49.44
2023-10-25T18:10:50.486Z,49.29
2023-10-25T18:13:17.630Z,49.70
2023-10-25T18:15:44.920Z,50.02
2023-10-25T18:18:12.178Z,50.14
2023-10-25T18:20:39.501Z,50.38
2023-10-25T18:23:06.778Z,50.23
2023-10-25T18:25:35.327Z,50.19
2023-10-25T18:28:02.763Z,50.69
2023-10-25T18:31:54.740Z,50.26
2023-10-25T18:33:18.043Z,50.40
2023-10-25T18:35:45.579Z,49.96
2023-10-25T18:38:12.817Z,51.17
2023-10-25T18:40:41.519Z,50.45
2023-10-25T18:43:08.660Z,50.78
2023-10-25T18:45:35.848Z,50.91
2023-10-25T18:48:03.177Z,50.47
2023-10-25T18:50:30.341Z,50.74
2023-10-25T18:52:57.465Z,50.65
2023-10-25T18:55:24.648Z,50.41
2023-10-25T18:57:53.147Z,50.91
2023-10-25T19:00:22.241Z,50.87
2023-10-25T19:02:51.006Z,51.02
2023-10-25T19:06:25.999Z,50.83
2023-10-25T19:08:26.611Z,51.01
2023-10-25T19:10:52.736Z,51.09
2023-10-25T19:13:21.320Z,51.34
2023-10-25T19:15:48.494Z,51.44
2023-10-25T19:18:15.812Z,51.11
2023-10-25T19:20:43.259Z,51.43
2023-10-25T19:23:10.458Z,51.63
2023-10-25T19:25:37.623Z,51.72
2023-10-25T19:28:05.776Z,51.34
2023-10-25T19:30:34.648Z,51.56
2023-10-25T19:33:02.082Z,51.90
2023-10-25T19:35:29.330Z,51.74
2023-10-25T19:37:56.543Z,51.66
2023-10-25T19:40:23.681Z,51.48
2023-10-25T19:42:50.834Z,51.55
2023-10-25T19:45:18.045Z,51.92
2023-10-25T19:47:46.602Z,51.63
2023-10-25T19:50:13.765Z,51.99
2023-10-25T19:52:40.894Z,51.86
2023-10-25T19:55:08.658Z,51.97
2023-10-25T19:57:35.835Z,52.09
2023-10-25T20:00:03.197Z,52.13
2023-10-25T20:02:30.354Z,52.13
2023-10-25T20:04:59.085Z,52.61
2023-10-25T20:07:26.220Z,52.23
2023-10-25T20:09:53.568Z,52.37
2023-10-25T20:12:20.752Z,52.67
2023-10-25T20:14:47.977Z,52.76
2023-10-25T20:17:15.127Z,52.76
2023-10-25T20:19:42.381Z,52.60
2023-10-25T20:22:10.911Z,52.29
2023-10-25T20:24:38.281Z,52.27
2023-10-25T20:27:05.499Z,52.34
2023-10-25T20:29:32.645Z,52.52
2023-10-25T20:31:59.767Z,52.63
2023-10-25T20:34:26.895Z,52.52
2023-10-25T20:36:54.022Z,52.32
2023-10-25T20:39:22.562Z,52.53
2023-10-25T20:41:49.744Z,52.60
2023-10-25T20:44:16.920Z,52.32
2023-10-25T20:46:44.422Z,52.45
2023-10-25T20:49:11.684Z,52.36
2023-10-25T20:51:38.837Z,52.44
2023-10-25T20:54:06.176Z,52.57
2023-10-25T20:56:34.702Z,52.32
2023-10-25T20:59:01.850Z,52.42
2023-10-25T21:01:29.032Z,52.44
2023-10-25T21:03:56.435Z,52.59
2023-10-25T21:06:23.748Z,52.23
2023-10-25T21:08:51.004Z,52.53
2023-10-25T21:11:18.353Z,52.43
2023-10-25T21:13:46.842Z,52.17
2023-10-25T21:16:14.416Z,52.07
2023-10-25T21:18:41.732Z,52.19
2023-10-25T21:21:08.965Z,52.39
2023-10-25T21:23:36.239Z,52.29
2023-10-25T21:26:06.808Z,52.12
2023-10-25T21:28:34.243Z,52.32
2023-10-25T21:31:06.592Z,52.26
2023-10-25T21:33:33.790Z,52.36
2023-10-25T21:36:05.514Z,52.34
2023-10-25T21:38:32.696Z,52.42
2023-10-25T21:41:02.348Z,52.24
2023-10-25T21:43:29.590Z,52.41
2023-10-25T21:45:57.169Z,52.65
2023-10-25T21:48:26.526Z,52.57
2023-10-25T21:50:58.060Z,52.90
2023-10-25T21:53:25.252Z,52.62
2023-10-25T21:56:22.990Z,52.64
2023-10-25T21:59:46.549Z,52.70
2023-10-25T22:01:27.745Z,52.39
2023-10-25T22:03:56.323Z,52.31
2023-10-25T22:06:23.508Z,52.51
2023-10-25T22:08:50.706Z,52.42
2023-10-25T22:11:17.917Z,52.46
2023-10-25T22:13:45.083Z,52.27
2023-10-25T22:16:12.194Z,52.33
2023-10-25T22:18:39.423Z,52.26
2023-10-25T22:21:08.095Z,52.27
2023-10-25T22:23:35.293Z,52.47
2023-10-25T22:26:02.450Z,52.33
2023-10-25T22:28:29.563Z,52.13
2023-10-25T22:30:56.664Z,52.14
2023-10-25T22:33:24.004Z,52.17
2023-10-25T22:35:51.218Z,52.52
2023-10-25T22:38:19.799Z,52.44
2023-10-25T22:40:47.119Z,52.43
2023-10-25T22:43:14.581Z,52.49
2023-10-25T22:45:41.705Z,52.73
2023-10-25T22:48:08.930Z,52.48
2023-10-25T22:50:36.100Z,52.71
2023-10-25T22:53:03.255Z,52.69
2023-10-25T22:55:31.770Z,52.31
2023-10-25T22:57:58.900Z,52.22
2023-10-25T23:00:26.083Z,52.27
2023-10-25T23:02:53.295Z,52.11
2023-10-25T23:05:20.534Z,52.45
2023-10-25T23:07:47.691Z,52.29
2023-10-25T23:10:14.920Z,52.39
2023-10-25T23:12:43.414Z,52.07
2023-10-25T23:15:11.073Z,52.30
2023-10-25T23:17:38.322Z,52.39
2023-10-25T23:20:06.847Z,52.39
2023-10-25T23:22:34.325Z,52.52
2023-10-25T23:25:01.717Z,52.33
2023-10-25T23:27:28.912Z,52.36
2023-10-25T23:29:57.392Z,52.56
2023-10-25T23:32:24.690Z,52.66
2023-10-25T23:34:51.838Z,52.43
2023-10-25T23:37:18.990Z,52.52
2023-10-25T23:39:46.621Z,52.51
2023-10-25T23:42:13.801Z,52.23
2023-10-25T23:44:41.069Z,52.27
2023-10-25T23:47:09.670Z,52.42
2023-10-25T23:49:37.072Z,52.21
2023-10-25T23:52:04.811Z,51.98
2023-10-25T23:54:50.617Z,52.24
2023-10-25T23:57:19.069Z,52.28
2023-10-25T23:59:46.284Z,52.33
